Time;durP1;ratioP1;P1;durP2;ratioP2;P2;SDS_P1;SDS_P2;PMS_P1;PMS_P2;Temp;Humidity;BMP_temperature;BMP_pressure;BME280_temperature;BME280_humidity;BME280_pressure;Samples;Min_cycle;Max_cycle;Signal;HPM_P1;HPM_P2
2020/12/04 00:00:05;;;;;;;5.07;2.80;;;;;;;;;;5030823;28;20022;-78
2020/12/04 00:02:30;;;;;;;5.27;2.63;;;;;;;;;;5047558;28;20045;-78
2020/12/04 00:04:56;;;;;;;5.47;2.90;;;;;;;;;;5030944;28;20469;-78
2020/12/04 00:07:21;;;;;;;3.83;2.40;;;;;;;;;;5013772;28;20029;-78
2020/12/04 00:09:48;;;;;;;4.10;2.53;;;;;;;;;;5030456;28;20029;-78
2020/12/04 00:12:13;;;;;;;5.25;2.83;;;;;;;;;;5046160;28;20116;-78
2020/12/04 00:14:39;;;;;;;4.60;2.70;;;;;;;;;;5013295;28;20026;-78
2020/12/04 00:17:05;;;;;;;4.10;2.43;;;;;;;;;;5029597;28;20021;-78
2020/12/04 00:19:31;;;;;;;5.70;2.90;;;;;;;;;;5029727;28;20089;-78
2020/12/04 00:21:57;;;;;;;5.63;2.90;;;;;;;;;;5029785;28;20029;-78
2020/12/04 00:24:23;;;;;;;4.97;2.83;;;;;;;;;;5029589;28;20060;-78
2020/12/04 00:26:49;;;;;;;5.47;2.70;;;;;;;;;;5029663;28;20029;-78
2020/12/04 00:29:15;;;;;;;4.60;2.70;;;;;;;;;;5030417;28;20028;-78
2020/12/04 00:31:40;;;;;;;6.13;2.70;;;;;;;;;;5029607;28;20022;-79
2020/12/04 00:34:06;;;;;;;4.20;2.47;;;;;;;;;;5029623;28;20083;-79
2020/12/04 00:36:31;;;;;;;4.73;2.70;;;;;;;;;;5029142;28;20099;-78
2020/12/04 00:38:57;;;;;;;4.37;2.70;;;;;;;;;;5029401;28;20082;-79
2020/12/04 00:41:23;;;;;;;5.67;2.70;;;;;;;;;;5029298;28;20052;-79
2020/12/04 00:43:48;;;;;;;5.32;2.85;;;;;;;;;;5030353;28;20036;-79
2020/12/04 00:46:14;;;;;;;5.57;2.60;;;;;;;;;;5029108;28;20029;-79
2020/12/04 00:48:39;;;;;;;4.23;2.60;;;;;;;;;;5028709;28;20057;-79
2020/12/04 00:51:05;;;;;;;4.63;2.87;;;;;;;;;;5012562;28;20021;-78
2020/12/04 00:53:30;;;;;;;5.33;2.63;;;;;;;;;;5029250;28;20153;-78
2020/12/04 00:55:56;;;;;;;6.20;2.80;;;;;;;;;;5044970;28;20030;-78
2020/12/04 00:58:21;;;;;;;5.00;2.83;;;;;;;;;;5028508;28;20214;-78
2020/12/04 01:00:46;;;;;;;4.03;2.47;;;;;;;;;;5028714;28;20075;-78
2020/12/04 01:03:12;;;;;;;4.80;2.83;;;;;;;;;;5028680;28;20025;-78
2020/12/04 01:05:37;;;;;;;5.07;2.83;;;;;;;;;;5028257;28;20056;-78
2020/12/04 01:08:02;;;;;;;3.97;2.40;;;;;;;;;;5027811;28;20034;-78
2020/12/04 01:10:28;;;;;;;5.63;2.60;;;;;;;;;;5028498;28;20026;-78
2020/12/04 01:12:53;;;;;;;4.90;2.73;;;;;;;;;;5027663;28;20036;-79
2020/12/04 01:15:18;;;;;;;4.57;2.80;;;;;;;;;;5026134;28;20032;-79
2020/12/04 01:17:43;;;;;;;5.80;2.70;;;;;;;;;;5028315;28;20025;-78
2020/12/04 01:20:09;;;;;;;4.87;2.80;;;;;;;;;;5026287;28;20036;-78
2020/12/04 01:22:34;;;;;;;5.43;2.87;;;;;;;;;;5026190;28;20028;-77
2020/12/04 01:24:59;;;;;;;5.23;2.63;;;;;;;;;;5021248;28;20026;-77
2020/12/04 01:27:25;;;;;;;5.13;3.00;;;;;;;;;;5015893;28;20057;-74
2020/12/04 01:29:50;;;;;;;5.87;3.00;;;;;;;;;;5037042;28;20024;-78
2020/12/04 01:32:15;;;;;;;5.77;2.60;;;;;;;;;;5027509;28;20029;-78
2020/12/04 01:34:41;;;;;;;5.00;2.60;;;;;;;;;;5026591;28;20021;-78
2020/12/04 01:37:06;;;;;;;5.57;2.90;;;;;;;;;;5042790;28;20028;-78
2020/12/04 01:39:32;;;;;;;10.40;2.70;;;;;;;;;;5025500;28;20029;-78
2020/12/04 01:41:57;;;;;;;5.50;2.80;;;;;;;;;;5024570;28;20029;-77
2020/12/04 01:44:22;;;;;;;5.13;2.97;;;;;;;;;;5024870;28;20171;-77
2020/12/04 01:46:49;;;;;;;4.87;2.63;;;;;;;;;;5024769;28;20025;-78
2020/12/04 01:49:15;;;;;;;5.00;2.85;;;;;;;;;;5023606;28;20025;-77
2020/12/04 01:51:40;;;;;;;4.45;2.83;;;;;;;;;;5022343;28;20021;-77
2020/12/04 01:54:05;;;;;;;5.17;3.07;;;;;;;;;;5021002;28;20036;-77
2020/12/04 01:56:37;;;;;;;6.70;2.90;;;;;;;;;;5019458;28;20041;-78
2020/12/04 01:59:03;;;;;;;5.15;2.78;;;;;;;;;;5017887;28;20511;-77
2020/12/04 02:01:28;;;;;;;5.30;2.70;;;;;;;;;;5020277;28;20029;-77
2020/12/04 02:03:54;;;;;;;6.27;3.20;;;;;;;;;;5019519;28;20072;-77
2020/12/04 02:06:23;;;;;;;5.50;3.00;;;;;;;;;;5021585;28;20025;-77
2020/12/04 02:08:55;;;;;;;4.22;2.60;;;;;;;;;;5021162;28;20033;-77
2020/12/04 02:11:23;;;;;;;6.35;2.83;;;;;;;;;;5038551;28;20030;-77
2020/12/04 02:13:49;;;;;;;5.25;2.58;;;;;;;;;;5039625;28;20025;-78
2020/12/04 02:16:18;;;;;;;4.25;2.63;;;;;;;;;;5003749;28;20018;-77
2020/12/04 02:18:44;;;;;;;5.03;2.72;;;;;;;;;;5036490;28;20112;-77
2020/12/04 02:21:10;;;;;;;5.07;3.07;;;;;;;;;;5035381;28;20064;-77
2020/12/04 02:23:36;;;;;;;5.20;2.95;;;;;;;;;;5016788;28;20025;-77
2020/12/04 02:26:01;;;;;;;4.70;2.80;;;;;;;;;;5017886;28;20124;-77
2020/12/04 02:28:34;;;;;;;4.50;2.90;;;;;;;;;;5017945;28;20025;-77
2020/12/04 02:30:59;;;;;;;5.20;2.72;;;;;;;;;;5019614;28;20023;-77
2020/12/04 02:33:24;;;;;;;5.10;2.83;;;;;;;;;;5035826;28;20021;-77
2020/12/04 02:35:50;;;;;;;5.20;3.00;;;;;;;;;;5020354;28;20029;-78
2020/12/04 02:38:15;;;;;;;5.80;2.70;;;;;;;;;;5021984;28;20052;-77
2020/12/04 02:40:40;;;;;;;5.30;2.80;;;;;;;;;;5042060;28;20034;-78
2020/12/04 02:43:06;;;;;;;5.07;3.00;;;;;;;;;;5025341;28;20018;-77
2020/12/04 02:45:31;;;;;;;5.53;2.83;;;;;;;;;;5024474;28;20026;-77
2020/12/04 02:47:56;;;;;;;5.97;3.00;;;;;;;;;;5024963;28;20037;-77
2020/12/04 02:50:22;;;;;;;5.17;2.80;;;;;;;;;;5024173;28;20036;-77
2020/12/04 02:52:47;;;;;;;5.00;2.90;;;;;;;;;;5024594;28;20037;-77
2020/12/04 02:55:12;;;;;;;5.73;2.87;;;;;;;;;;5025102;28;20474;-77
2020/12/04 02:57:38;;;;;;;4.27;2.80;;;;;;;;;;5025275;28;20030;-77
2020/12/04 03:00:03;;;;;;;5.67;3.00;;;;;;;;;;5008890;28;20025;-77
2020/12/04 03:02:29;;;;;;;5.63;2.95;;;;;;;;;;5020178;28;20029;-76
2020/12/04 03:04:54;;;;;;;4.60;2.70;;;;;;;;;;5002766;28;20028;-76
2020/12/04 03:07:19;;;;;;;6.37;3.07;;;;;;;;;;5019271;28;20104;-76
2020/12/04 03:09:45;;;;;;;4.47;2.63;;;;;;;;;;5018878;28;20496;-76
2020/12/04 03:12:10;;;;;;;6.70;3.00;;;;;;;;;;5035249;28;20492;-76
2020/12/04 03:14:35;;;;;;;5.20;2.70;;;;;;;;;;5018609;28;20456;-76
2020/12/04 03:17:01;;;;;;;5.53;3.10;;;;;;;;;;5018339;28;20045;-76
2020/12/04 03:19:26;;;;;;;4.53;3.10;;;;;;;;;;5018321;28;20045;-76
2020/12/04 03:21:51;;;;;;;5.27;2.90;;;;;;;;;;5018409;28;20485;-76
2020/12/04 03:24:17;;;;;;;4.70;3.07;;;;;;;;;;5018622;28;20065;-76
2020/12/04 03:26:42;;;;;;;4.97;3.00;;;;;;;;;;5035018;28;20061;-76
2020/12/04 03:29:07;;;;;;;5.23;2.97;;;;;;;;;;5018687;28;20091;-77
2020/12/04 03:31:32;;;;;;;5.93;3.23;;;;;;;;;;5034813;28;20064;-77
2020/12/04 03:33:58;;;;;;;5.43;3.10;;;;;;;;;;5018551;28;20057;-76
2020/12/04 03:36:23;;;;;;;4.63;2.90;;;;;;;;;;5018337;28;20060;-76
2020/12/04 03:38:48;;;;;;;4.57;2.67;;;;;;;;;;5018161;28;20492;-76
2020/12/04 03:41:14;;;;;;;5.17;3.10;;;;;;;;;;5017871;28;20488;-76
2020/12/04 03:43:40;;;;;;;6.53;2.87;;;;;;;;;;5018034;28;20029;-76
2020/12/04 03:46:12;;;;;;;4.93;3.10;;;;;;;;;;5018267;28;20498;-76
2020/12/04 03:48:38;;;;;;;5.55;3.03;;;;;;;;;;5018164;28;20485;-76
2020/12/04 03:51:03;;;;;;;5.22;3.22;;;;;;;;;;5017558;28;20044;-76
2020/12/04 03:53:29;;;;;;;7.27;3.20;;;;;;;;;;5018622;28;20025;-77
2020/12/04 03:55:54;;;;;;;5.77;3.30;;;;;;;;;;5018088;28;20041;-77
2020/12/04 03:58:19;;;;;;;4.73;2.90;;;;;;;;;;5036267;28;20053;-78
2020/12/04 04:00:45;;;;;;;4.53;2.90;;;;;;;;;;5017419;28;20087;-77
2020/12/04 04:03:10;;;;;;;4.93;2.97;;;;;;;;;;5018480;28;20111;-77
2020/12/04 04:05:35;;;;;;;5.00;3.20;;;;;;;;;;5017661;28;20056;-77
2020/12/04 04:08:01;;;;;;;5.10;3.17;;;;;;;;;;5017411;28;20462;-77
2020/12/04 04:10:26;;;;;;;4.87;2.87;;;;;;;;;;5017758;28;20121;-77
2020/12/04 04:12:52;;;;;;;7.13;3.10;;;;;;;;;;5015769;28;20087;-77
2020/12/04 04:15:17;;;;;;;6.03;3.10;;;;;;;;;;5016164;28;20112;-76
2020/12/04 04:17:42;;;;;;;6.47;3.17;;;;;;;;;;5017014;28;20064;-76
2020/12/04 04:20:08;;;;;;;5.47;2.97;;;;;;;;;;4983250;28;20065;-76
2020/12/04 04:22:33;;;;;;;5.83;3.00;;;;;;;;;;5013799;28;20061;-76
2020/12/04 04:24:58;;;;;;;5.40;2.97;;;;;;;;;;5024198;28;20072;-76
2020/12/04 04:27:24;;;;;;;5.67;3.00;;;;;;;;;;5033244;28;20067;-76
2020/12/04 04:29:50;;;;;;;6.10;3.27;;;;;;;;;;5000895;28;20040;-77
2020/12/04 04:32:15;;;;;;;4.57;3.00;;;;;;;;;;5014045;28;20052;-76
2020/12/04 04:34:40;;;;;;;4.57;2.90;;;;;;;;;;5013668;28;20061;-76
2020/12/04 04:37:06;;;;;;;6.33;3.13;;;;;;;;;;4997030;28;20045;-76
2020/12/04 04:39:31;;;;;;;5.63;3.47;;;;;;;;;;5010368;28;20507;-77
2020/12/04 04:41:57;;;;;;;4.83;3.30;;;;;;;;;;5016638;28;20075;-76
2020/12/04 04:44:22;;;;;;;5.18;3.17;;;;;;;;;;5005288;28;20042;-77
2020/12/04 04:47:13;;;;;;;6.77;3.80;;;;;;;;;;5025007;28;20034;-75
2020/12/04 04:49:45;;;;;;;7.32;4.10;;;;;;;;;;5024246;28;20032;-75
2020/12/04 04:52:11;;;;;;;7.88;4.13;;;;;;;;;;5016597;28;20025;-75
2020/12/04 04:54:36;;;;;;;7.37;4.70;;;;;;;;;;5000605;28;20110;-77
2020/12/04 04:57:03;;;;;;;7.78;4.45;;;;;;;;;;5027362;22;20041;-74
2020/12/04 04:59:28;;;;;;;8.20;4.30;;;;;;;;;;4998149;28;20026;-73
2020/12/04 05:01:53;;;;;;;7.50;4.40;;;;;;;;;;4997408;28;20029;-73
2020/12/04 05:04:19;;;;;;;8.97;4.30;;;;;;;;;;4998017;28;20049;-72
2020/12/04 05:06:47;;;;;;;7.97;4.60;;;;;;;;;;5014629;28;20072;-72
2020/12/04 05:09:29;;;;;;;8.40;4.95;;;;;;;;;;5030695;28;20030;-72
2020/12/04 05:11:55;;;;;;;8.88;4.60;;;;;;;;;;5030567;28;20025;-73
2020/12/04 05:14:24;;;;;;;;;;;;;;;;;;4998309;28;20048;-73
2020/12/04 05:16:51;;;;;;;8.15;5.00;;;;;;;;;;5015428;28;20031;-72
2020/12/04 05:19:29;;;;;;;7.78;4.50;;;;;;;;;;5014167;28;20025;-71
2020/12/04 05:21:55;;;;;;;6.47;4.30;;;;;;;;;;5030962;28;20481;-71
2020/12/04 05:24:27;;;;;;;8.48;4.78;;;;;;;;;;5015590;28;20037;-72
2020/12/04 05:26:52;;;;;;;7.72;4.85;;;;;;;;;;5014113;28;20057;-72
2020/12/04 05:29:18;;;;;;;9.83;5.10;;;;;;;;;;5014417;28;20030;-73
2020/12/04 05:31:43;;;;;;;6.87;4.60;;;;;;;;;;4998281;28;20026;-71
2020/12/04 05:34:19;;;;;;;8.90;4.60;;;;;;;;;;4998608;28;20541;-72
2020/12/04 05:36:44;;;;;;;7.50;4.72;;;;;;;;;;5014872;28;20037;-73
2020/12/04 05:39:09;;;;;;;7.87;4.47;;;;;;;;;;5014918;28;20493;-73
2020/12/04 05:41:35;;;;;;;7.90;4.90;;;;;;;;;;4998226;28;20057;-73
2020/12/04 05:44:00;;;;;;;7.07;4.23;;;;;;;;;;4997995;28;20053;-73
2020/12/04 05:46:26;;;;;;;7.33;4.63;;;;;;;;;;4997871;28;20061;-73
2020/12/04 05:48:59;;;;;;;7.20;4.50;;;;;;;;;;5013935;28;20022;-73
2020/12/04 05:51:25;;;;;;;7.75;4.93;;;;;;;;;;4998317;28;20437;-73
2020/12/04 05:53:51;;;;;;;;;;;;;;;;;;5014810;28;20022;-71
2020/12/04 05:56:17;;;;;;;7.85;4.95;;;;;;;;;;5014573;28;19909;-73
2020/12/04 05:58:43;;;;;;;7.33;4.67;;;;;;;;;;5014580;28;20026;-73
2020/12/04 06:01:08;;;;;;;6.40;4.60;;;;;;;;;;5014858;28;20101;-73
2020/12/04 06:03:33;;;;;;;6.87;4.73;;;;;;;;;;5014709;28;20539;-71
2020/12/04 06:05:59;;;;;;;8.00;4.90;;;;;;;;;;5014979;28;20054;-71
2020/12/04 06:08:24;;;;;;;7.33;4.73;;;;;;;;;;4998012;28;20050;-72
2020/12/04 06:10:52;;;;;;;8.07;4.70;;;;;;;;;;5015083;28;20030;-72
2020/12/04 06:13:17;;;;;;;8.40;5.10;;;;;;;;;;4998325;28;20026;-71
2020/12/04 06:15:43;;;;;;;10.67;6.03;;;;;;;;;;5033447;28;20468;-71
2020/12/04 06:18:08;;;;;;;8.67;5.00;;;;;;;;;;5017927;28;20073;-73
2020/12/04 06:20:40;;;;;;;7.73;4.17;;;;;;;;;;5016794;28;20060;-74
2020/12/04 06:23:15;;;;;;;7.53;4.45;;;;;;;;;;5018914;28;20279;-74
2020/12/04 06:25:53;;;;;;;8.30;4.63;;;;;;;;;;4999620;28;20022;-73
2020/12/04 06:28:39;;;;;;;7.25;4.47;;;;;;;;;;5015840;28;20481;-73
2020/12/04 06:31:08;;;;;;;6.97;4.50;;;;;;;;;;5015882;28;20451;-74
2020/12/04 06:33:47;;;;;;;9.00;4.88;;;;;;;;;;5015793;28;20026;-74
2020/12/04 06:36:32;;;;;;;6.72;4.40;;;;;;;;;;5015786;28;20097;-73
2020/12/04 06:38:58;;;;;;;6.38;4.25;;;;;;;;;;5015710;28;20117;-74
2020/12/04 06:41:34;;;;;;;6.47;4.40;;;;;;;;;;4999762;28;20058;-73
2020/12/04 06:44:07;;;;;;;5.90;4.10;;;;;;;;;;5016959;28;20029;-73
2020/12/04 06:46:42;;;;;;;8.27;4.38;;;;;;;;;;5016919;28;20052;-72
2020/12/04 06:52:06;;;;;;;8.02;4.45;;;;;;;;;;5016664;28;20434;-73
2020/12/04 06:54:32;;;;;;;6.72;4.40;;;;;;;;;;5015729;28;20062;-73
2020/12/04 06:56:58;;;;;;;7.10;4.65;;;;;;;;;;4999133;28;20095;-72
2020/12/04 06:59:28;;;;;;;9.23;4.60;;;;;;;;;;5015353;28;20477;-72
2020/12/04 07:02:04;;;;;;;7.22;4.63;;;;;;;;;;5015207;28;20072;-75
2020/12/04 07:04:30;;;;;;;7.05;4.57;;;;;;;;;;5015661;28;20026;-75
2020/12/04 07:07:03;;;;;;;6.57;4.50;;;;;;;;;;4999203;28;20026;-72
2020/12/04 07:09:28;;;;;;;7.18;4.55;;;;;;;;;;4999282;28;20033;-72
2020/12/04 07:11:55;;;;;;;6.67;4.27;;;;;;;;;;5015173;28;20030;-73
2020/12/04 07:14:21;;;;;;;10.90;4.47;;;;;;;;;;4998886;28;20113;-72
2020/12/04 07:16:46;;;;;;;7.43;4.50;;;;;;;;;;5014953;28;20164;-71
2020/12/04 07:19:12;;;;;;;7.03;4.40;;;;;;;;;;5014997;28;20098;-75
2020/12/04 07:21:37;;;;;;;11.67;6.70;;;;;;;;;;4998913;28;20057;-73
2020/12/04 07:24:02;;;;;;;12.07;7.90;;;;;;;;;;5014813;28;20052;-76
2020/12/04 07:26:28;;;;;;;9.13;6.00;;;;;;;;;;5014121;28;20108;-77
2020/12/04 07:28:53;;;;;;;9.47;5.60;;;;;;;;;;4998560;28;20109;-76
2020/12/04 07:31:19;;;;;;;10.50;6.10;;;;;;;;;;5014758;28;20044;-75
2020/12/04 07:33:49;;;;;;;9.27;5.55;;;;;;;;;;4998597;28;20029;-75
2020/12/04 07:36:14;;;;;;;8.48;5.40;;;;;;;;;;5015659;28;20076;-76
2020/12/04 07:38:48;;;;;;;7.67;4.87;;;;;;;;;;4998120;28;20046;-75
2020/12/04 07:41:24;;;;;;;9.05;5.32;;;;;;;;;;4998439;28;20049;-76
2020/12/04 07:43:49;;;;;;;8.25;5.38;;;;;;;;;;4998408;28;20033;-74
2020/12/04 07:46:19;;;;;;;11.00;5.50;;;;;;;;;;5015686;28;20545;-74
2020/12/04 07:48:58;;;;;;;7.50;4.90;;;;;;;;;;4998000;28;20477;-75
2020/12/04 07:51:23;;;;;;;7.85;4.97;;;;;;;;;;5031854;28;20025;-74
2020/12/04 07:53:49;;;;;;;7.30;4.87;;;;;;;;;;4998005;28;20037;-75
2020/12/04 07:56:14;;;;;;;8.17;5.00;;;;;;;;;;4997928;28;20072;-74
2020/12/04 07:58:39;;;;;;;9.70;4.90;;;;;;;;;;4997899;28;20057;-75
2020/12/04 08:01:05;;;;;;;7.13;4.90;;;;;;;;;;5030629;28;20121;-74
2020/12/04 08:03:30;;;;;;;7.33;4.73;;;;;;;;;;4997737;28;20065;-75
2020/12/04 08:05:55;;;;;;;8.50;4.87;;;;;;;;;;4997714;28;20061;-74
2020/12/04 08:08:22;;;;;;;6.53;4.50;;;;;;;;;;4997607;28;20077;-76
2020/12/04 08:10:47;;;;;;;7.57;4.80;;;;;;;;;;5014120;28;20049;-74
2020/12/04 08:13:12;;;;;;;7.07;4.80;;;;;;;;;;4997618;28;20146;-74
2020/12/04 08:15:41;;;;;;;7.83;4.80;;;;;;;;;;5013717;28;20103;-75
2020/12/04 08:18:10;;;;;;;7.15;4.78;;;;;;;;;;4997373;28;20029;-74
2020/12/04 08:20:35;;;;;;;6.80;4.72;;;;;;;;;;5014252;28;20559;-75
2020/12/04 08:23:00;;;;;;;7.57;4.90;;;;;;;;;;5013624;28;20113;-75
2020/12/04 08:25:27;;;;;;;7.27;4.87;;;;;;;;;;5013788;28;20453;-74
2020/12/04 08:27:52;;;;;;;;;;;;;;;;;;4997727;28;20022;-73
2020/12/04 08:30:18;;;;;;;8.93;4.95;;;;;;;;;;5013818;28;20288;-76
2020/12/04 08:32:45;;;;;;;7.20;4.80;;;;;;;;;;5013612;28;20473;-75
2020/12/04 08:35:15;;;;;;;8.88;4.90;;;;;;;;;;4997230;28;20481;-75
2020/12/04 08:37:41;;;;;;;6.10;4.40;;;;;;;;;;4996076;28;20021;-76
2020/12/04 08:40:24;;;;;;;6.80;4.60;;;;;;;;;;5013568;28;20034;-77
2020/12/04 08:42:50;;;;;;;9.23;5.00;;;;;;;;;;5013643;28;20050;-77
2020/12/04 08:45:15;;;;;;;6.83;4.83;;;;;;;;;;5029957;28;20119;-76
2020/12/04 08:47:40;;;;;;;7.10;5.00;;;;;;;;;;4996782;28;20543;-73
2020/12/04 08:50:18;;;;;;;6.93;4.97;;;;;;;;;;5013134;28;20037;-73
2020/12/04 08:52:50;;;;;;;6.93;4.93;;;;;;;;;;4997197;28;20036;-73
2020/12/04 08:55:26;;;;;;;8.68;5.07;;;;;;;;;;4997474;28;20026;-75
2020/12/04 08:57:55;;;;;;;8.30;5.20;;;;;;;;;;5029512;28;20022;-73
2020/12/04 09:00:32;;;;;;;7.80;5.15;;;;;;;;;;4997052;28;20072;-73
2020/12/04 09:02:57;;;;;;;6.90;4.75;;;;;;;;;;4998945;28;20030;-74
2020/12/04 09:05:22;;;;;;;7.37;5.00;;;;;;;;;;5012748;28;20064;-72
2020/12/04 09:07:48;;;;;;;8.37;5.17;;;;;;;;;;5029331;28;20064;-73
2020/12/04 09:10:14;;;;;;;7.33;5.10;;;;;;;;;;4996664;28;20033;-74
2020/12/04 09:12:40;;;;;;;7.53;5.20;;;;;;;;;;4996456;28;20025;-72
2020/12/04 09:15:06;;;;;;;7.37;4.90;;;;;;;;;;4996464;28;20447;-73
2020/12/04 09:17:31;;;;;;;7.55;5.03;;;;;;;;;;5012605;28;20028;-73
2020/12/04 09:19:57;;;;;;;7.40;4.87;;;;;;;;;;4996263;28;20117;-73
2020/12/04 09:22:22;;;;;;;7.40;4.73;;;;;;;;;;5013010;28;20049;-73
2020/12/04 09:24:48;;;;;;;8.10;4.97;;;;;;;;;;5012598;28;20025;-74
2020/12/04 09:27:13;;;;;;;7.63;5.10;;;;;;;;;;4996091;28;20440;-74
2020/12/04 09:29:38;;;;;;;7.77;5.17;;;;;;;;;;5028939;28;20032;-74
2020/12/04 09:32:14;;;;;;;8.17;5.10;;;;;;;;;;5012522;28;20056;-74
2020/12/04 09:34:41;;;;;;;8.02;5.13;;;;;;;;;;5013084;28;20385;-73
2020/12/04 09:37:17;;;;;;;;;;;;;;;;;;5012830;28;20022;-74
2020/12/04 09:39:45;;;;;;;8.60;5.05;;;;;;;;;;4996079;28;19968;-73
2020/12/04 09:42:12;;;;;;;7.25;4.82;;;;;;;;;;5012224;28;20025;-72
2020/12/04 09:44:37;;;;;;;7.57;5.10;;;;;;;;;;4996065;28;20022;-73
2020/12/04 09:47:03;;;;;;;7.77;5.20;;;;;;;;;;4995814;28;20080;-73
2020/12/04 09:49:28;;;;;;;8.07;5.00;;;;;;;;;;5013468;28;20455;-73
2020/12/04 09:51:58;;;;;;;7.53;4.60;;;;;;;;;;5012219;28;20029;-73
2020/12/04 09:54:27;;;;;;;7.38;4.78;;;;;;;;;;4996358;28;20021;-74
2020/12/04 09:56:53;;;;;;;9.77;4.80;;;;;;;;;;4996109;28;20048;-72
2020/12/04 09:59:20;;;;;;;8.00;5.38;;;;;;;;;;5012248;28;20096;-73
2020/12/04 10:01:47;;;;;;;9.82;4.97;;;;;;;;;;4995615;28;20026;-75
2020/12/04 10:04:13;;;;;;;13.30;6.43;;;;;;;;;;5012037;28;20120;-73
2020/12/04 10:06:38;;;;;;;8.93;5.43;;;;;;;;;;4995689;28;20507;-73
2020/12/04 10:09:04;;;;;;;7.87;5.03;;;;;;;;;;5012263;28;20393;-75
2020/12/04 10:11:29;;;;;;;10.83;5.60;;;;;;;;;;5012522;28;20046;-74
2020/12/04 10:13:54;;;;;;;9.87;5.00;;;;;;;;;;4995794;28;20504;-74
2020/12/04 10:16:20;;;;;;;8.10;5.20;;;;;;;;;;5012041;28;20049;-74
2020/12/04 10:18:45;;;;;;;8.90;5.03;;;;;;;;;;5028678;28;20050;-73
2020/12/04 10:21:10;;;;;;;10.73;6.00;;;;;;;;;;5028503;28;20053;-73
2020/12/04 10:23:36;;;;;;;10.70;5.93;;;;;;;;;;5012224;28;20108;-75
2020/12/04 10:26:01;;;;;;;11.73;5.40;;;;;;;;;;5011925;28;20053;-74
2020/12/04 10:28:28;;;;;;;9.80;5.00;;;;;;;;;;4995461;28;20072;-74
2020/12/04 10:30:55;;;;;;;11.27;5.68;;;;;;;;;;4996195;28;20026;-74
2020/12/04 10:33:20;;;;;;;9.00;5.72;;;;;;;;;;5012120;28;20018;-74
2020/12/04 10:35:45;;;;;;;9.67;5.70;;;;;;;;;;5012353;28;20030;-74
2020/12/04 10:38:11;;;;;;;10.10;5.57;;;;;;;;;;5012305;28;20093;-78
2020/12/04 10:40:36;;;;;;;8.57;5.33;;;;;;;;;;4995421;28;20478;-76
2020/12/04 10:43:02;;;;;;;8.87;5.30;;;;;;;;;;5011783;28;20463;-76
2020/12/04 10:45:27;;;;;;;9.10;5.20;;;;;;;;;;5011759;28;20080;-76
2020/12/04 10:47:52;;;;;;;7.53;5.13;;;;;;;;;;4995223;28;20073;-77
2020/12/04 10:50:18;;;;;;;9.07;5.10;;;;;;;;;;5028245;28;20061;-73
2020/12/04 10:52:43;;;;;;;7.93;5.00;;;;;;;;;;5028074;28;20053;-73
2020/12/04 10:55:08;;;;;;;16.77;5.40;;;;;;;;;;5013649;28;20539;-74
2020/12/04 10:57:34;;;;;;;9.10;5.20;;;;;;;;;;4996095;28;20053;-75
2020/12/04 10:59:59;;;;;;;9.03;5.10;;;;;;;;;;4996594;28;20058;-75
2020/12/04 11:02:33;;;;;;;10.30;5.37;;;;;;;;;;5015550;28;20045;-74
2020/12/04 11:07:43;;;;;;;7.55;5.05;;;;;;;;;;5015734;28;20396;-76
2020/12/04 11:10:08;;;;;;;8.53;4.80;;;;;;;;;;5017119;28;20022;-75
2020/12/04 11:12:33;;;;;;;10.87;4.97;;;;;;;;;;5033015;28;20497;-76
2020/12/04 11:14:59;;;;;;;8.83;5.00;;;;;;;;;;4999248;28;20021;-75
2020/12/04 11:17:24;;;;;;;7.20;4.67;;;;;;;;;;5016492;28;20049;-74
2020/12/04 11:19:51;;;;;;;7.03;4.87;;;;;;;;;;5015561;28;20493;-73
2020/12/04 11:22:17;;;;;;;8.95;5.22;;;;;;;;;;4999198;28;20473;-73
2020/12/04 11:24:42;;;;;;;8.20;4.77;;;;;;;;;;4998498;28;20050;-73
2020/12/04 11:27:08;;;;;;;8.00;4.90;;;;;;;;;;5015834;28;20464;-73
2020/12/04 11:29:33;;;;;;;8.37;5.13;;;;;;;;;;5031450;28;20032;-73
2020/12/04 11:31:58;;;;;;;9.07;4.70;;;;;;;;;;5015019;28;20061;-72
2020/12/04 11:34:23;;;;;;;8.60;4.80;;;;;;;;;;5026573;23;20049;-81
2020/12/04 11:36:49;;;;;;;8.10;4.50;;;;;;;;;;5019382;28;20072;-81
2020/12/04 11:39:14;;;;;;;7.77;4.70;;;;;;;;;;5036417;28;20033;-80
2020/12/04 11:41:39;;;;;;;9.70;5.13;;;;;;;;;;5036122;28;20033;-80
2020/12/04 11:44:05;;;;;;;7.77;5.33;;;;;;;;;;5036398;28;20036;-80
2020/12/04 11:46:30;;;;;;;7.23;4.90;;;;;;;;;;5003007;28;20099;-80
2020/12/04 11:48:55;;;;;;;8.43;4.90;;;;;;;;;;5003067;28;20063;-80
2020/12/04 11:51:22;;;;;;;8.10;4.23;;;;;;;;;;5019383;28;20051;-80
2020/12/04 11:53:48;;;;;;;10.07;4.80;;;;;;;;;;5002934;28;20400;-80
2020/12/04 11:56:13;;;;;;;7.57;4.97;;;;;;;;;;5002812;28;20033;-80
2020/12/04 11:58:38;;;;;;;9.47;4.70;;;;;;;;;;5002410;28;20021;-82
2020/12/04 12:01:04;;;;;;;8.53;4.77;;;;;;;;;;5002511;28;20040;-82
2020/12/04 12:03:29;;;;;;;7.67;4.97;;;;;;;;;;5002592;28;20021;-81
2020/12/04 12:05:54;;;;;;;7.53;4.77;;;;;;;;;;5002961;28;20022;-82
2020/12/04 12:08:20;;;;;;;7.63;4.80;;;;;;;;;;5002648;28;20081;-81
2020/12/04 12:10:45;;;;;;;7.20;4.70;;;;;;;;;;5018848;28;20063;-81
2020/12/04 12:13:10;;;;;;;7.23;4.40;;;;;;;;;;5002029;28;20072;-81
2020/12/04 12:15:36;;;;;;;7.33;4.67;;;;;;;;;;5002190;28;20029;-82
2020/12/04 12:18:01;;;;;;;7.43;4.83;;;;;;;;;;5002387;28;20468;-81
2020/12/04 12:20:26;;;;;;;9.03;5.13;;;;;;;;;;5001968;28;20484;-80
2020/12/04 12:22:53;;;;;;;9.30;4.80;;;;;;;;;;5002074;28;20412;-80
2020/12/04 12:25:18;;;;;;;8.23;4.90;;;;;;;;;;5018558;28;20029;-79
2020/12/04 12:27:44;;;;;;;6.90;4.87;;;;;;;;;;5018295;28;20022;-82
2020/12/04 12:30:09;;;;;;;9.27;4.90;;;;;;;;;;5002888;28;20116;-83
2020/12/04 12:32:34;;;;;;;6.70;4.50;;;;;;;;;;5002117;28;20113;-83
2020/12/04 12:35:05;;;;;;;7.67;4.67;;;;;;;;;;5001863;28;20472;-83
2020/12/04 12:37:31;;;;;;;8.15;4.90;;;;;;;;;;5003741;28;20096;-82
2020/12/04 12:40:00;;;;;;;7.38;4.68;;;;;;;;;;5002357;28;20033;-80
2020/12/04 12:42:25;;;;;;;7.00;4.60;;;;;;;;;;5019731;28;20025;-81
2020/12/04 12:44:51;;;;;;;9.47;4.83;;;;;;;;;;5001840;28;20120;-82
2020/12/04 12:47:16;;;;;;;9.90;4.90;;;;;;;;;;5001935;28;20159;-82
2020/12/04 12:49:41;;;;;;;6.60;4.37;;;;;;;;;;5002619;28;20056;-81
2020/12/04 12:52:08;;;;;;;7.17;4.60;;;;;;;;;;5002315;28;20033;-83
2020/12/04 12:54:34;;;;;;;7.70;4.75;;;;;;;;;;5002522;28;20495;-81
2020/12/04 12:56:59;;;;;;;7.63;4.50;;;;;;;;;;5018067;28;20029;-81
2020/12/04 12:59:24;;;;;;;7.67;4.23;;;;;;;;;;5002100;28;20032;-83
2020/12/04 13:01:50;;;;;;;6.50;4.43;;;;;;;;;;5001853;28;20030;-81
2020/12/04 13:04:16;;;;;;;7.07;4.45;;;;;;;;;;5001614;28;20021;-81
2020/12/04 13:06:44;;;;;;;6.40;4.40;;;;;;;;;;5001923;28;20033;-81
2020/12/04 13:09:10;;;;;;;7.07;4.40;;;;;;;;;;5001964;28;20018;-83
2020/12/04 13:11:35;;;;;;;8.60;4.80;;;;;;;;;;5001425;28;20032;-83
2020/12/04 13:14:01;;;;;;;7.67;4.67;;;;;;;;;;5001814;28;20055;-83
2020/12/04 13:16:26;;;;;;;6.63;4.50;;;;;;;;;;5018337;28;20156;-83
2020/12/04 13:18:52;;;;;;;7.30;4.20;;;;;;;;;;5001641;28;20480;-83
2020/12/04 13:21:17;;;;;;;6.87;4.60;;;;;;;;;;5001505;28;20028;-83
2020/12/04 13:23:42;;;;;;;7.17;4.67;;;;;;;;;;5000849;28;20060;-83
2020/12/04 13:26:36;;;;;;;6.80;4.70;;;;;;;;;;5018990;28;20025;-82
2020/12/04 13:28:53;;;;;;;6.60;4.40;;;;;;;;;;5020075;28;20029;-83
2020/12/04 13:31:18;;;;;;;6.70;4.67;;;;;;;;;;5001259;28;20029;-82
2020/12/04 13:33:44;;;;;;;6.37;4.30;;;;;;;;;;5000757;28;20048;-82
2020/12/04 13:36:09;;;;;;;6.33;4.43;;;;;;;;;;5000949;28;20026;-82
2020/12/04 13:38:34;;;;;;;5.73;4.10;;;;;;;;;;5033725;28;20029;-82
2020/12/04 13:41:00;;;;;;;7.33;4.90;;;;;;;;;;5000805;28;20036;-82
2020/12/04 13:43:25;;;;;;;6.43;4.30;;;;;;;;;;5000662;28;20094;-81
2020/12/04 13:45:51;;;;;;;6.73;4.50;;;;;;;;;;5017339;28;20060;-82
2020/12/04 13:48:16;;;;;;;6.28;4.15;;;;;;;;;;5016893;28;20048;-83
2020/12/04 13:50:42;;;;;;;7.13;4.10;;;;;;;;;;5000822;28;20033;-82
2020/12/04 13:53:07;;;;;;;6.17;4.03;;;;;;;;;;5000643;28;20112;-82
2020/12/04 13:55:33;;;;;;;6.43;4.47;;;;;;;;;;5001270;28;20112;-82
2020/12/04 13:57:58;;;;;;;7.27;4.60;;;;;;;;;;5000751;28;20495;-82
2020/12/04 14:00:23;;;;;;;5.93;4.10;;;;;;;;;;5016775;28;20500;-82
2020/12/04 14:02:49;;;;;;;6.20;4.03;;;;;;;;;;5000372;28;20420;-82
2020/12/04 14:05:14;;;;;;;5.83;4.10;;;;;;;;;;5000542;28;20025;-80
2020/12/04 14:07:39;;;;;;;5.40;3.87;;;;;;;;;;5016726;28;20025;-80
2020/12/04 14:10:06;;;;;;;7.03;4.03;;;;;;;;;;5016708;28;20072;-82
2020/12/04 14:12:31;;;;;;;6.20;4.07;;;;;;;;;;5016868;28;20029;-80
2020/12/04 14:14:57;;;;;;;7.03;4.23;;;;;;;;;;5000369;28;20558;-81
2020/12/04 14:17:22;;;;;;;6.03;4.03;;;;;;;;;;5017247;28;20480;-81
2020/12/04 14:19:47;;;;;;;7.23;4.20;;;;;;;;;;5000655;28;20025;-81
2020/12/04 14:22:13;;;;;;;6.20;4.10;;;;;;;;;;5033172;28;20030;-83
2020/12/04 14:24:38;;;;;;;6.77;3.83;;;;;;;;;;5000450;28;20031;-81
2020/12/04 14:27:03;;;;;;;6.87;4.23;;;;;;;;;;5001544;28;20118;-82
2020/12/04 14:29:29;;;;;;;8.37;5.13;;;;;;;;;;5000156;28;20562;-80
2020/12/04 14:31:54;;;;;;;7.37;4.70;;;;;;;;;;5000534;28;20040;-81
2020/12/04 14:34:20;;;;;;;9.03;4.70;;;;;;;;;;5000729;28;20033;-83
2020/12/04 14:36:45;;;;;;;31.13;5.57;;;;;;;;;;5004261;28;20052;-85
2020/12/04 14:39:10;;;;;;;29.93;5.90;;;;;;;;;;5003729;28;20021;-83
2020/12/04 14:41:37;;;;;;;32.80;5.97;;;;;;;;;;5003601;28;20516;-83
2020/12/04 14:44:03;;;;;;;48.85;7.00;;;;;;;;;;5004135;28;20112;-83